Time;durP1;ratioP1;P1;durP2;ratioP2;P2;SDS_P1;SDS_P2;PMS_P1;PMS_P2;Temp;Humidity;BMP_temperature;BMP_pressure;BME280_temperature;BME280_humidity;BME280_pressure;Samples;Min_cycle;Max_cycle;Signal;HPM_P1;HPM_P2
2022/09/29 00:00:50;;;;;;;1.10;0.80;;;;;;;9.83;86.97;96319.38;6281898;28;20240;-43
2022/09/29 00:03:52;;;;;;;1.10;1.00;;;;;;;9.81;87.58;96316.06;6281764;28;20714;-43
2022/09/29 00:06:54;;;;;;;1.00;0.70;;;;;;;9.77;87.41;96312.09;6281717;28;20749;-43
2022/09/29 00:09:56;;;;;;;0.80;0.70;;;;;;;9.73;87.71;96309.91;6282428;28;20626;-43
2022/09/29 00:12:58;;;;;;;1.07;0.80;;;;;;;9.70;88.05;96313.66;6279051;28;20805;-43
2022/09/29 00:16:02;;;;;;;1.60;0.70;;;;;;;9.70;88.42;96323.38;6281484;28;20232;-43
2022/09/29 00:19:04;;;;;;;0.80;0.70;;;;;;;9.67;88.09;96315.78;6263541;28;20233;-43
2022/09/29 00:22:06;;;;;;;0.80;0.73;;;;;;;9.67;89.00;96314.00;6280933;28;20227;-42
2022/09/29 00:25:08;;;;;;;0.77;0.77;;;;;;;9.65;88.34;96315.13;6280991;28;20764;-42
2022/09/29 00:28:10;;;;;;;0.80;0.80;;;;;;;9.62;88.57;96311.78;6280516;28;20315;-43
2022/09/29 00:31:12;;;;;;;1.17;0.70;;;;;;;9.60;88.86;96315.56;6281689;28;20229;-43
2022/09/29 00:34:14;;;;;;;0.80;0.80;;;;;;;9.57;89.28;96319.34;6263715;28;20240;-42
2022/09/29 00:37:16;;;;;;;0.83;0.73;;;;;;;9.58;89.21;96310.44;6281230;28;20280;-43
2022/09/29 00:40:18;;;;;;;2.80;1.40;;;;;;;9.55;89.93;96313.38;6281600;28;20302;-42
2022/09/29 00:43:43;;;;;;;2.43;0.90;;;;;;;9.53;89.46;96310.06;6280155;28;20629;-43
2022/09/29 00:47:01;;;;;;;3.93;1.13;;;;;;;9.49;90.48;96315.75;6280499;28;20747;-43
2022/09/29 00:50:18;;;;;;;1.77;1.37;;;;;;;9.45;90.12;96309.16;6284476;28;20240;-43
2022/09/29 00:53:22;;;;;;;2.50;1.40;;;;;;;9.41;89.77;96307.78;6280358;28;20222;-43
2022/09/29 00:56:24;;;;;;;1.27;1.17;;;;;;;9.37;90.43;96311.72;6280845;28;20229;-42
2022/09/29 00:59:57;;;;;;;1.30;1.20;;;;;;;9.35;89.99;96311.88;6279149;28;20578;-43
2022/09/29 01:03:07;;;;;;;2.83;1.20;;;;;;;9.35;89.70;96314.50;6278785;28;20226;-43
2022/09/29 01:06:25;;;;;;;1.43;1.00;;;;;;;9.36;90.02;96310.06;6279351;28;20223;-43
2022/09/29 01:09:33;;;;;;;2.00;1.53;;;;;;;9.33;90.33;96313.81;6280148;28;20238;-43
2022/09/29 01:12:35;;;;;;;2.20;1.90;;;;;;;9.29;90.55;96315.06;6279414;28;20259;-43
2022/09/29 01:15:37;;;;;;;1.43;1.33;;;;;;;9.30;90.68;96308.84;6279992;28;20232;-43
2022/09/29 01:18:41;;;;;;;2.33;1.10;;;;;;;9.33;90.50;96320.88;6279829;28;20228;-43
2022/09/29 01:21:59;;;;;;;1.67;1.50;;;;;;;9.33;90.18;96312.97;6280228;28;20334;-43
2022/09/29 01:25:26;;;;;;;1.67;1.30;;;;;;;9.30;90.93;96315.91;6266364;28;20243;-42
2022/09/29 01:28:46;;;;;;;1.50;1.40;;;;;;;9.25;90.37;96326.91;6267755;28;20232;-43
2022/09/29 01:32:00;;;;;;;1.37;1.17;;;;;;;9.26;91.00;96328.56;6280191;28;20226;-43
2022/09/29 01:35:26;;;;;;;1.93;1.20;;;;;;;9.28;90.45;96329.25;6280042;28;20238;-43
2022/09/29 01:38:49;;;;;;;1.30;1.20;;;;;;;9.28;90.75;96328.41;6279837;28;20326;-44
2022/09/29 01:41:57;;;;;;;3.13;1.17;;;;;;;9.24;90.98;96326.06;6278694;28;20229;-43
2022/09/29 01:45:14;;;;;;;0.73;0.73;;;;;;;9.25;91.04;96333.00;6279266;28;20230;-43
2022/09/29 01:48:24;;;;;;;1.20;1.10;;;;;;;9.23;91.00;96320.94;6278721;28;20252;-43
2022/09/29 01:51:39;;;;;;;1.07;0.97;;;;;;;9.19;90.77;96327.47;6280286;28;20239;-43
2022/09/29 01:54:48;;;;;;;2.23;0.90;;;;;;;9.12;90.89;96316.72;6279637;28;20237;-42
2022/09/29 01:58:05;;;;;;;1.10;0.90;;;;;;;9.11;90.56;96316.84;6279568;28;20238;-44
2022/09/29 02:01:12;;;;;;;2.70;1.47;;;;;;;9.05;90.57;96310.41;6279148;28;20326;-43
2022/09/29 02:04:31;;;;;;;1.60;1.50;;;;;;;8.98;89.93;96313.78;6278192;28;20291;-44
2022/09/29 02:07:40;;;;;;;2.37;1.30;;;;;;;8.97;90.40;96318.19;6277195;28;20712;-43
2022/09/29 02:11:07;;;;;;;2.23;1.13;;;;;;;8.95;90.02;96321.94;6278667;28;20293;-43
2022/09/29 02:14:20;;;;;;;2.50;1.33;;;;;;;8.94;90.17;96320.28;6278767;28;20235;-42
2022/09/29 02:17:45;;;;;;;1.90;1.40;;;;;;;8.93;90.21;96316.00;6278857;28;20737;-43
2022/09/29 02:20:49;;;;;;;1.70;1.30;;;;;;;8.96;90.84;96316.53;6278082;28;20242;-42
2022/09/29 02:23:51;;;;;;;1.60;1.50;;;;;;;8.97;90.58;96318.19;6260726;28;20304;-42
2022/09/29 02:26:53;;;;;;;4.03;1.33;;;;;;;8.97;90.68;96323.47;6278102;28;20262;-43
2022/09/29 02:29:58;;;;;;;2.47;1.67;;;;;;;8.94;90.93;96328.19;6283784;28;20701;-43
2022/09/29 02:33:00;;;;;;;3.00;1.50;;;;;;;8.96;90.10;96321.81;6278614;28;20603;-42
2022/09/29 02:36:14;;;;;;;1.27;1.17;;;;;;;8.94;89.67;96315.84;6278647;28;20219;-42
2022/09/29 02:39:34;;;;;;;4.10;1.63;;;;;;;8.90;89.51;96332.88;6278250;28;20707;-42
2022/09/29 02:43:04;;;;;;;1.60;1.40;;;;;;;8.88;90.51;96338.28;6276534;28;20237;-44
2022/09/29 02:46:06;;;;;;;1.90;1.40;;;;;;;8.85;89.90;96333.34;6253730;28;20245;-42
2022/09/29 02:49:26;;;;;;;1.90;1.70;;;;;;;8.87;90.61;96334.03;6279113;28;20609;-42
2022/09/29 02:52:53;;;;;;;1.63;1.17;;;;;;;8.81;89.72;96315.34;6277754;28;20762;-43
2022/09/29 02:56:06;;;;;;;2.20;1.63;;;;;;;8.75;90.01;96323.84;6277884;28;20253;-43
2022/09/29 02:59:19;;;;;;;1.83;1.43;;;;;;;8.62;90.97;96339.09;6277742;28;20231;-43
2022/09/29 03:02:26;;;;;;;4.10;1.60;;;;;;;8.54;91.72;96334.56;6278410;28;20237;-42
2022/09/29 03:05:28;;;;;;;1.87;1.63;;;;;;;8.51;92.10;96342.75;6277803;28;20321;-43
2022/09/29 03:08:31;;;;;;;2.73;1.70;;;;;;;8.52;91.60;96341.78;6278207;28;20230;-43
2022/09/29 03:11:33;;;;;;;2.07;1.70;;;;;;;8.47;92.11;96336.97;6260271;28;20226;-42
2022/09/29 03:14:35;;;;;;;2.23;1.73;;;;;;;8.48;92.27;96348.31;6278151;28;20356;-42
2022/09/29 03:17:38;;;;;;;2.57;2.17;;;;;;;8.46;91.54;96352.88;6277360;28;20245;-43
2022/09/29 03:20:40;;;;;;;4.33;2.30;;;;;;;8.49;92.65;96355.19;6278489;28;20238;-43
2022/09/29 03:23:42;;;;;;;3.60;2.43;;;;;;;8.52;91.92;96347.84;6282683;28;20222;-43
2022/09/29 03:26:44;;;;;;;4.17;2.20;;;;;;;8.56;91.74;96339.69;6282206;28;20234;-42
2022/09/29 03:29:46;;;;;;;2.03;1.60;;;;;;;8.54;91.97;96345.09;6283673;28;20239;-44
2022/09/29 03:32:49;;;;;;;4.17;2.10;;;;;;;8.55;91.09;96354.63;6282443;28;20368;-42
2022/09/29 03:35:51;;;;;;;3.63;1.90;;;;;;;8.51;91.40;96356.72;6282669;28;20237;-42
2022/09/29 03:38:53;;;;;;;2.37;1.73;;;;;;;8.52;90.91;96349.66;6281657;28;20235;-43
2022/09/29 03:41:55;;;;;;;2.40;1.50;;;;;;;8.50;90.02;96341.06;6282221;28;20265;-45
2022/09/29 03:44:57;;;;;;;2.80;1.57;;;;;;;8.54;90.50;96344.25;6281807;28;20226;-43
2022/09/29 03:47:59;;;;;;;2.20;2.00;;;;;;;8.54;90.62;96352.97;6279292;28;20612;-42
2022/09/29 03:51:02;;;;;;;1.77;1.40;;;;;;;8.54;89.66;96352.97;6282833;28;20708;-42
2022/09/29 03:54:04;;;;;;;1.77;1.50;;;;;;;8.54;90.49;96342.47;6281894;28;20496;-42
2022/09/29 03:57:06;;;;;;;1.77;1.53;;;;;;;8.55;89.88;96344.13;6282068;28;20345;-42
2022/09/29 04:00:09;;;;;;;1.53;1.40;;;;;;;8.57;90.21;96349.25;6283512;28;20322;-43
2022/09/29 04:03:11;;;;;;;1.50;1.40;;;;;;;8.56;89.39;96337.06;6280427;28;20199;-45
2022/09/29 04:06:13;;;;;;;1.90;1.43;;;;;;;8.55;89.82;96338.88;6280916;28;20229;-44
2022/09/29 04:09:15;;;;;;;2.37;1.33;;;;;;;8.54;89.42;96341.63;6281347;28;20214;-43
2022/09/29 04:12:17;;;;;;;1.37;1.17;;;;;;;8.55;90.24;96349.38;6281838;28;20260;-43
2022/09/29 04:15:19;;;;;;;1.10;1.00;;;;;;;8.54;90.27;96360.88;6281648;28;20301;-44
2022/09/29 04:18:23;;;;;;;0.80;0.80;;;;;;;8.52;89.63;96362.81;6280165;28;20633;-43
2022/09/29 04:21:25;;;;;;;1.80;0.97;;;;;;;8.53;89.75;96359.22;6281279;28;20612;-43
2022/09/29 04:24:27;;;;;;;1.80;0.70;;;;;;;8.57;89.66;96357.97;6280272;28;20230;-43
2022/09/29 04:27:29;;;;;;;1.40;1.00;;;;;;;8.58;89.66;96351.72;6281262;28;20309;-42
2022/09/29 04:30:31;;;;;;;1.07;0.93;;;;;;;8.58;90.23;96351.72;6282687;28;20725;-43
2022/09/29 04:33:33;;;;;;;0.90;0.90;;;;;;;8.54;89.88;96345.09;6280311;28;20230;-43
2022/09/29 04:36:35;;;;;;;1.53;0.87;;;;;;;8.50;90.10;96348.97;6280284;28;20242;-43
2022/09/29 04:39:37;;;;;;;1.23;0.93;;;;;;;8.46;91.07;96337.94;6281790;28;20313;-43
2022/09/29 04:42:39;;;;;;;2.00;1.10;;;;;;;8.45;90.65;96340.69;6280343;28;20237;-43
2022/09/29 04:45:41;;;;;;;1.20;0.70;;;;;;;8.41;90.88;96341.94;6280568;28;20632;-43
2022/09/29 04:48:43;;;;;;;0.63;0.63;;;;;;;8.38;90.87;96350.13;6280211;28;20234;-42
2022/09/29 04:51:45;;;;;;;0.80;0.80;;;;;;;8.38;90.35;96344.88;6271976;28;20237;-43
2022/09/29 04:54:47;;;;;;;1.30;0.90;;;;;;;8.35;90.59;96345.97;6280980;28;20227;-44
2022/09/29 04:57:50;;;;;;;0.80;0.80;;;;;;;8.32;90.85;96342.78;6281358;28;20245;-43
2022/09/29 05:00:52;;;;;;;0.80;0.80;;;;;;;8.32;90.99;96346.25;6279791;28;20243;-44
2022/09/29 05:03:54;;;;;;;0.83;0.70;;;;;;;8.29;91.00;96353.53;6280447;28;20375;-44
2022/09/29 05:06:56;;;;;;;0.87;0.87;;;;;;;8.28;91.50;96362.44;6281256;28;20657;-43
2022/09/29 05:09:58;;;;;;;2.10;1.30;;;;;;;8.28;92.02;96373.78;6280658;28;20241;-43
2022/09/29 05:13:00;;;;;;;1.67;0.90;;;;;;;8.31;91.98;96365.63;6280116;28;20356;-43
2022/09/29 05:16:03;;;;;;;2.30;0.80;;;;;;;8.34;92.07;96365.34;6279577;28;20238;-42
2022/09/29 05:19:06;;;;;;;0.80;0.80;;;;;;;8.40;91.73;96351.63;6279747;28;20230;-44
2022/09/29 05:22:08;;;;;;;1.13;1.03;;;;;;;8.45;91.29;96359.94;6277862;28;20234;-43
2022/09/29 05:25:10;;;;;;;5.00;1.30;;;;;;;8.52;92.15;96363.63;6279247;28;20237;-43
2022/09/29 05:28:16;;;;;;;2.30;1.10;;;;;;;8.61;91.93;96361.13;6278871;28;20552;-43
2022/09/29 05:31:18;;;;;;;1.40;1.30;;;;;;;8.65;91.55;96368.59;6279084;28;20372;-43
2022/09/29 05:34:21;;;;;;;2.43;1.23;;;;;;;8.69;91.34;96363.84;6279896;28;20287;-42
2022/09/29 05:37:23;;;;;;;3.33;1.30;;;;;;;8.73;91.74;96370.50;6279485;28;20241;-43
2022/09/29 05:40:25;;;;;;;2.40;1.43;;;;;;;8.77;91.71;96377.13;6278458;28;20233;-43
2022/09/29 05:43:28;;;;;;;1.60;1.50;;;;;;;8.80;91.53;96385.53;6278625;28;20226;-43
2022/09/29 05:46:30;;;;;;;1.70;1.60;;;;;;;8.85;90.86;96385.13;6277872;28;20226;-43
2022/09/29 05:49:32;;;;;;;2.00;1.80;;;;;;;8.86;91.90;96395.50;6260075;28;20230;-43
2022/09/29 05:52:34;;;;;;;1.70;1.60;;;;;;;8.89;90.82;96399.63;6278230;28;20325;-44
2022/09/29 05:55:37;;;;;;;1.60;1.50;;;;;;;8.88;90.87;96390.91;6279223;28;20711;-45
2022/09/29 05:58:40;;;;;;;1.87;1.77;;;;;;;8.96;90.66;96390.22;6278704;28;20611;-43
2022/09/29 06:01:42;;;;;;;3.47;2.10;;;;;;;8.98;90.87;96397.97;6278182;28;20236;-43
2022/09/29 06:04:44;;;;;;;2.20;2.00;;;;;;;9.00;91.43;96398.63;6278344;28;20238;-43
2022/09/29 06:07:46;;;;;;;2.60;1.80;;;;;;;9.03;90.78;96401.81;6277220;28;20230;-43
2022/09/29 06:10:48;;;;;;;4.47;1.90;;;;;;;9.05;90.53;96399.03;6278706;28;20242;-43
2022/09/29 06:13:52;;;;;;;2.10;2.00;;;;;;;9.08;90.54;96401.38;6276635;28;20583;-43
2022/09/29 06:16:54;;;;;;;4.20;2.10;;;;;;;9.03;90.88;96404.44;6278109;28;20224;-44
2022/09/29 06:19:57;;;;;;;2.87;2.20;;;;;;;9.01;90.50;96400.28;6279685;28;20678;-43
2022/09/29 06:22:59;;;;;;;2.17;1.97;;;;;;;9.00;90.54;96399.47;6278230;28;20596;-43
2022/09/29 06:26:04;;;;;;;2.03;1.90;;;;;;;9.05;90.42;96394.59;6277214;28;20229;-42
2022/09/29 06:29:06;;;;;;;2.00;1.87;;;;;;;9.10;89.53;96399.41;6278965;28;20272;-42
2022/09/29 06:32:08;;;;;;;4.37;2.13;;;;;;;9.13;89.90;96399.97;6278401;28;20229;-42
2022/09/29 06:38:31;;;;;;;2.60;1.87;;;;;;;9.17;90.52;96406.59;6277932;28;20314;-43
2022/09/29 06:41:34;;;;;;;1.90;1.80;;;;;;;9.20;90.89;96406.28;6277696;28;20236;-42
2022/09/29 06:44:36;;;;;;;1.83;1.63;;;;;;;9.25;89.60;96398.81;6279044;28;20243;-42
2022/09/29 06:47:38;;;;;;;2.07;1.73;;;;;;;9.34;88.81;96405.00;6277605;28;20239;-42
2022/09/29 06:50:40;;;;;;;1.43;1.33;;;;;;;9.46;88.25;96397.72;6278481;28;20234;-42
2022/09/29 06:53:42;;;;;;;1.43;1.30;;;;;;;9.59;87.86;96400.81;6277475;28;20255;-42
2022/09/29 06:56:51;;;;;;;2.40;1.30;;;;;;;9.71;87.58;96399.63;6280614;28;20227;-42
2022/09/29 06:59:53;;;;;;;1.97;1.07;;;;;;;9.82;87.60;96396.78;6282589;28;20581;-42
2022/09/29 07:02:55;;;;;;;1.40;1.30;;;;;;;9.89;86.77;96397.81;6282609;28;20374;-44
2022/09/29 07:06:02;;;;;;;1.57;1.30;;;;;;;9.98;86.36;96401.38;6283018;28;20689;-42
2022/09/29 07:09:22;;;;;;;1.40;1.30;;;;;;;10.05;86.54;96399.81;6282041;28;20647;-42
2022/09/29 07:12:25;;;;;;;1.83;1.47;;;;;;;10.13;86.18;96397.22;6282375;28;20314;-42
2022/09/29 07:15:33;;;;;;;1.20;1.10;;;;;;;10.16;85.28;96399.56;6281944;28;20359;-43
2022/09/29 07:18:37;;;;;;;1.30;1.20;;;;;;;10.19;84.80;96399.28;6282157;28;20739;-43
2022/09/29 07:21:40;;;;;;;1.10;1.00;;;;;;;10.31;84.69;96398.06;6282582;28;20240;-42
2022/09/29 07:24:42;;;;;;;1.23;1.10;;;;;;;10.46;84.63;96389.63;6283300;28;20695;-43
2022/09/29 07:27:45;;;;;;;3.63;1.10;;;;;;;10.60;83.64;96392.50;6282176;28;20238;-43
2022/09/29 07:31:16;;;;;;;1.73;0.90;;;;;;;10.73;83.02;96402.66;6281665;28;20232;-42
2022/09/29 07:34:19;;;;;;;1.40;0.83;;;;;;;10.80;82.99;96393.13;6281680;28;20478;-43
2022/09/29 07:37:21;;;;;;;0.80;0.80;;;;;;;10.81;82.52;96396.59;6280720;28;20859;-42
2022/09/29 07:40:24;;;;;;;1.13;0.93;;;;;;;10.89;82.53;96404.53;6282492;28;20655;-42
2022/09/29 07:43:26;;;;;;;1.73;0.90;;;;;;;10.96;82.52;96405.59;6281499;28;20225;-42
2022/09/29 07:46:28;;;;;;;1.30;0.70;;;;;;;10.99;82.04;96419.28;6281073;28;20237;-44
2022/09/29 07:49:30;;;;;;;1.17;0.70;;;;;;;11.04;82.54;96418.84;6281311;28;20241;-42
2022/09/29 07:52:32;;;;;;;1.97;1.03;;;;;;;11.10;82.96;96421.66;6281472;28;20719;-43
2022/09/29 07:55:34;;;;;;;0.57;0.50;;;;;;;11.07;80.62;96419.34;6281384;28;20264;-43
2022/09/29 07:58:37;;;;;;;0.97;0.83;;;;;;;11.17;79.90;96427.16;6282175;28;20662;-43
2022/09/29 08:01:39;;;;;;;0.60;0.60;;;;;;;11.25;79.29;96435.13;6281879;28;20719;-42
2022/09/29 08:04:42;;;;;;;1.13;0.70;;;;;;;11.37;79.07;96435.69;6281323;28;20581;-43
2022/09/29 08:07:50;;;;;;;1.00;0.90;;;;;;;11.51;79.06;96434.22;6280090;28;20319;-43
2022/09/29 08:11:07;;;;;;;1.60;0.53;;;;;;;11.70;78.28;96437.44;6281748;28;20232;-42
2022/09/29 08:14:10;;;;;;;0.77;0.77;;;;;;;11.86;76.48;96444.63;6279268;28;20225;-43
2022/09/29 08:17:13;;;;;;;0.70;0.70;;;;;;;12.10;74.58;96434.09;6281284;28;20274;-43
2022/09/29 08:20:14;;;;;;;0.80;0.60;;;;;;;12.27;74.90;96440.25;6281706;28;20731;-43
2022/09/29 08:23:17;;;;;;;1.07;0.60;;;;;;;12.25;74.19;96444.88;6280520;28;20232;-43
2022/09/29 08:26:21;;;;;;;1.10;0.70;;;;;;;12.26;74.82;96448.34;6281116;28;20231;-46
2022/09/29 08:29:41;;;;;;;0.80;0.70;;;;;;;12.27;74.41;96445.53;6280991;28;20376;-43
2022/09/29 08:32:54;;;;;;;1.13;0.60;;;;;;;12.30;74.48;96453.13;6280281;28;20744;-42
2022/09/29 08:36:00;;;;;;;0.50;0.50;;;;;;;12.29;74.49;96446.19;6279591;28;20650;-43
2022/09/29 08:39:02;;;;;;;0.60;0.60;;;;;;;12.28;74.62;96438.44;6280431;28;20668;-43
2022/09/29 08:42:14;;;;;;;0.60;0.60;;;;;;;12.24;74.29;96443.22;6279922;28;20233;-42
2022/09/29 08:45:30;;;;;;;1.60;0.70;;;;;;;12.16;74.32;96445.84;6279773;28;20217;-43
2022/09/29 08:48:38;;;;;;;0.80;0.70;;;;;;;12.18;73.70;96439.38;6280746;28;20233;-42
2022/09/29 08:52:00;;;;;;;1.80;0.60;;;;;;;12.29;73.31;96435.59;6280421;28;20820;-45
2022/09/29 08:55:16;;;;;;;0.60;0.60;;;;;;;12.53;73.08;96434.78;6280817;28;20230;-43
2022/09/29 08:58:23;;;;;;;0.70;0.70;;;;;;;12.75;72.74;96442.06;6282659;28;20266;-42
2022/09/29 09:01:47;;;;;;;0.53;0.53;;;;;;;13.01;71.97;96448.97;6280793;28;20311;-43
2022/09/29 09:05:11;;;;;;;0.67;0.60;;;;;;;13.18;69.89;96447.97;6262563;28;20235;-42
2022/09/29 09:08:50;;;;;;;1.00;0.60;;;;;;;13.24;67.40;96445.47;6279750;28;20324;-43
2022/09/29 09:12:11;;;;;;;0.60;0.60;;;;;;;13.30;66.60;96450.09;6280318;28;20260;-43
2022/09/29 09:15:27;;;;;;;0.60;0.50;;;;;;;13.61;66.15;96463.41;6279457;28;20712;-42
2022/09/29 09:18:57;;;;;;;1.37;0.70;;;;;;;13.65;65.48;96461.25;6279911;28;20604;-43
2022/09/29 09:22:24;;;;;;;0.80;0.70;;;;;;;13.77;64.55;96467.81;6279758;28;20238;-42
2022/09/29 09:26:17;;;;;;;1.27;0.63;;;;;;;13.66;63.72;96462.91;6279247;28;20230;-43
2022/09/29 09:29:28;;;;;;;1.80;0.60;;;;;;;13.46;63.65;96451.06;6202202;28;20228;-43
2022/09/29 09:32:44;;;;;;;0.70;0.50;;;;;;;13.51;64.32;96461.94;6202732;28;20237;-42
2022/09/29 09:35:54;;;;;;;0.83;0.67;;;;;;;13.71;64.66;96459.72;6202275;28;20297;-43
2022/09/29 09:39:14;;;;;;;1.63;0.50;;;;;;;13.89;64.08;96453.16;6202168;28;20326;-42
2022/09/29 09:42:25;;;;;;;0.80;0.50;;;;;;;13.83;63.52;96456.50;6201604;28;20712;-44
2022/09/29 09:45:36;;;;;;;0.50;0.50;;;;;;;13.81;64.13;96453.22;6201897;28;20700;-43
2022/09/29 09:48:48;;;;;;;0.80;0.40;;;;;;;13.85;64.48;96454.53;6202771;28;20255;-43
2022/09/29 09:51:56;;;;;;;0.97;0.53;;;;;;;13.40;63.60;96455.19;6204858;28;20802;-42
2022/09/29 09:55:09;;;;;;;0.57;0.50;;;;;;;13.34;64.41;96466.47;6201789;28;20704;-42
2022/09/29 09:58:30;;;;;;;0.40;0.40;;;;;;;13.34;64.38;96457.72;6202407;28;20252;-43
2022/09/29 10:01:32;;;;;;;0.30;0.30;;;;;;;13.52;64.30;96461.78;6278715;28;20250;-42
2022/09/29 10:04:34;;;;;;;0.50;0.50;;;;;;;13.84;63.64;96458.19;6279143;28;20720;-42
2022/09/29 10:07:37;;;;;;;0.50;0.50;;;;;;;14.12;63.84;96465.66;6279095;28;20226;-42
2022/09/29 10:10:42;;;;;;;0.50;0.50;;;;;;;14.15;62.42;96460.81;6279306;28;20252;-42
2022/09/29 10:14:22;;;;;;;0.73;0.60;;;;;;;13.86;60.15;96447.41;6278055;28;20242;-43
2022/09/29 10:17:32;;;;;;;1.20;0.50;;;;;;;13.72;61.91;96435.69;6277208;28;20706;-42
2022/09/29 10:20:36;;;;;;;0.50;0.50;;;;;;;13.92;61.20;96444.03;6277909;28;20261;-43
2022/09/29 10:23:49;;;;;;;0.73;0.60;;;;;;;14.67;61.15;96447.69;6278198;28;20353;-44
2022/09/29 10:26:55;;;;;;;0.77;0.30;;;;;;;15.16;55.84;96451.75;6277657;28;20238;-42
2022/09/29 10:29:58;;;;;;;1.37;0.60;;;;;;;15.46;56.16;96438.28;6278427;28;20227;-42
2022/09/29 10:33:04;;;;;;;1.30;0.50;;;;;;;15.85;54.87;96431.84;6278097;28;20226;-42
2022/09/29 10:36:12;;;;;;;1.10;0.67;;;;;;;16.06;53.84;96431.06;6276836;28;20240;-42
2022/09/29 10:39:41;;;;;;;0.50;0.50;;;;;;;16.27;100.00;60274.75;6278183;28;20210;-42
2022/09/29 10:42:47;;;;;;;2.10;0.60;;;;;;;-144.22;100.00;60274.75;6277394;28;20586;-42
2022/09/29 10:45:49;;;;;;;1.10;0.60;;;;;;;-144.22;100.00;60274.75;6277336;28;20568;-43
2022/09/29 10:49:28;;;;;;;0.77;0.50;;;;;;;-144.22;100.00;60274.75;6276394;28;20261;-42
2022/09/29 10:52:30;;;;;;;0.67;0.57;;;;;;;-144.22;100.00;60274.75;6155482;28;20815;-44
2022/09/29 10:55:35;;;;;;;0.60;0.60;;;;;;;-144.22;100.00;60274.75;6176707;28;20604;-44
2022/09/29 10:58:41;;;;;;;1.27;0.70;;;;;;;-144.22;100.00;60274.75;6176798;28;20252;-41
2022/09/29 11:02:01;;;;;;;0.50;0.50;;;;;;;-144.22;100.00;60274.75;6177368;28;20237;-43
2022/09/29 11:05:22;;;;;;;0.90;0.60;;;;;;;17.85;100.00;60274.75;6175746;28;20229;-42
2022/09/29 11:08:26;;;;;;;1.67;0.80;;;;;;;-144.22;100.00;60274.75;6176391;28;20225;-42
2022/09/29 11:11:35;;;;;;;1.40;0.70;;;;;;;-144.22;100.00;60274.75;6177006;28;20894;-42
2022/09/29 11:14:37;;;;;;;2.27;0.90;;;;;;;-144.22;100.00;60274.75;6176959;28;20232;-43
2022/09/29 11:17:48;;;;;;;1.57;1.07;;;;;;;16.12;53.24;96446.06;6176109;28;20607;-42
2022/09/29 11:21:18;;;;;;;1.23;1.00;;;;;;;15.83;53.15;96449.84;6177113;28;20233;-43
2022/09/29 11:24:51;;;;;;;0.80;0.63;;;;;;;15.75;53.25;96439.31;6175943;28;20240;-43
2022/09/29 11:28:03;;;;;;;1.10;1.00;;;;;;;15.82;53.93;96440.19;6275728;28;20222;-43
2022/09/29 11:31:42;;;;;;;0.70;0.70;;;;;;;15.71;52.28;96441.50;6278849;28;20230;-43
2022/09/29 11:35:04;;;;;;;0.60;0.57;;;;;;;15.69;53.08;96448.00;6277617;28;20702;-43
2022/09/29 11:38:30;;;;;;;2.20;0.77;;;;;;;15.87;52.65;96454.56;6276465;28;20306;-43
2022/09/29 11:41:59;;;;;;;0.80;0.70;;;;;;;15.62;53.60;96442.59;6276556;28;20628;-43
2022/09/29 11:45:07;;;;;;;0.90;0.83;;;;;;;15.31;54.44;96444.59;6281056;28;20222;-42
2022/09/29 11:48:54;;;;;;;1.03;0.77;;;;;;;15.11;55.97;96444.31;6281411;28;20585;-42
2022/09/29 11:52:17;;;;;;;1.10;0.90;;;;;;;15.05;55.80;96451.19;6282672;28;20226;-42
2022/09/29 11:55:46;;;;;;;2.30;0.90;;;;;;;15.14;56.44;96457.25;6281813;28;20255;-42
2022/09/29 11:59:23;;;;;;;1.03;0.70;;;;;;;15.32;58.83;96444.41;6281410;28;20728;-42
2022/09/29 12:02:41;;;;;;;1.23;0.90;;;;;;;15.27;57.22;96446.78;6269948;28;20242;-43
2022/09/29 12:06:01;;;;;;;1.77;0.90;;;;;;;15.10;56.16;96455.94;6267292;28;20231;-44
2022/09/29 12:09:17;;;;;;;1.43;0.80;;;;;;;15.08;56.53;96461.44;6280682;28;20239;-42
2022/09/29 12:12:44;;;;;;;1.00;0.83;;;;;;;15.03;55.65;96458.50;6280410;28;20211;-44
2022/09/29 12:15:49;;;;;;;1.10;1.00;;;;;;;15.68;55.19;96441.84;6280334;28;20238;-42
2022/09/29 12:18:56;;;;;;;1.17;1.00;;;;;;;16.48;52.27;96432.91;6280516;28;20226;-43
2022/09/29 12:22:02;;;;;;;1.27;0.90;;;;;;;17.65;52.33;96439.41;6281091;28;20309;-42
2022/09/29 12:25:05;;;;;;;0.80;0.80;;;;;;;18.00;48.16;96426.81;6280236;28;20713;-42
2022/09/29 12:28:26;;;;;;;2.30;0.80;;;;;;;17.80;47.34;96441.91;6281394;28;20235;-43
2022/09/29 12:31:36;;;;;;;1.27;0.97;;;;;;;17.35;48.63;96441.47;6280980;28;20230;-43
2022/09/29 12:34:44;;;;;;;1.40;0.90;;;;;;;17.26;49.11;96438.13;6280894;28;20237;-42
2022/09/29 12:38:00;;;;;;;0.90;0.60;;;;;;;17.11;49.96;96433.91;6279440;28;20230;-43
2022/09/29 12:41:12;;;;;;;0.70;0.70;;;;;;;16.96;50.67;96437.50;6279944;28;20237;-42
2022/09/29 12:44:33;;;;;;;0.80;0.80;;;;;;;17.39;48.15;96425.88;6279823;28;20230;-42
2022/09/29 12:47:59;;;;;;;1.77;0.97;;;;;;;17.78;47.01;96423.44;6279415;28;20538;-43
2022/09/29 12:51:19;;;;;;;0.90;0.60;;;;;;;18.35;45.79;96427.53;6280427;28;20236;-42
2022/09/29 12:54:35;;;;;;;1.13;0.60;;;;;;;17.62;46.79;96437.94;6279072;28;20237;-41
2022/09/29 12:57:41;;;;;;;1.20;0.73;;;;;;;17.17;48.31;96427.81;6279494;28;20694;-41
2022/09/29 13:00:51;;;;;;;1.10;0.80;;;;;;;16.98;48.91;96429.28;6280143;28;20721;-43
2022/09/29 13:04:12;;;;;;;1.87;0.90;;;;;;;17.85;100.00;60274.75;6278787;28;20229;-42
2022/09/29 13:07:16;;;;;;;0.80;0.80;;;;;;;-144.22;100.00;60274.75;6279425;28;20227;-44
2022/09/29 13:10:44;;;;;;;1.17;0.93;;;;;;;-144.22;100.00;60274.75;6279502;28;20698;-42
2022/09/29 13:14:02;;;;;;;1.10;1.00;;;;;;;-144.22;100.00;60274.75;6279230;28;20218;-42
2022/09/29 13:18:04;;;;;;;0.73;0.60;;;;;;;-144.22;100.00;60274.75;6278973;28;20227;-43
2022/09/29 13:21:26;;;;;;;0.60;0.60;;;;;;;-144.22;100.00;60274.75;6202557;28;20379;-42
2022/09/29 13:24:28;;;;;;;0.93;0.60;;;;;;;-144.22;100.00;60274.75;6196996;28;20719;-44
2022/09/29 13:27:36;;;;;;;1.07;0.80;;;;;;;-144.22;100.00;60274.75;6202210;28;20252;-44
2022/09/29 13:30:39;;;;;;;0.60;0.60;;;;;;;-144.22;100.00;60274.75;6203294;28;20233;-43
2022/09/29 13:33:52;;;;;;;0.87;0.83;;;;;;;-144.22;100.00;60274.75;6201817;28;20275;-44
2022/09/29 13:37:11;;;;;;;0.90;0.80;;;;;;;-144.22;100.00;60274.75;6201987;28;20713;-43
2022/09/29 13:40:20;;;;;;;1.67;0.70;;;;;;;-144.22;100.00;60274.75;6201873;28;20236;-42
2022/09/29 13:43:50;;;;;;;0.73;0.70;;;;;;;-144.22;100.00;60274.75;6202478;28;20232;-42
2022/09/29 13:46:55;;;;;;;0.57;0.50;;;;;;;-144.22;100.00;60274.75;6201957;28;20234;-44
2022/09/29 13:50:21;;;;;;;0.90;0.70;;;;;;;-144.22;100.00;60274.75;6201947;28;20236;-43
2022/09/29 13:53:24;;;;;;;0.60;0.60;;;;;;;-144.22;100.00;60274.75;6201773;28;20239;-43
2022/09/29 13:56:26;;;;;;;0.70;0.67;;;;;;;-144.22;100.00;60274.75;6251762;28;20241;-43
2022/09/29 13:59:28;;;;;;;1.20;0.73;;;;;;;-144.22;100.00;60274.75;6278024;28;20234;-43
2022/09/29 14:02:36;;;;;;;1.30;1.00;;;;;;;-144.22;100.00;60274.75;6277815;28;20245;-43
2022/09/29 14:05:45;;;;;;;0.87;0.83;;;;;;;-144.22;100.00;60274.75;6278358;28;20250;-43
2022/09/29 14:09:03;;;;;;;1.60;0.60;;;;;;;-144.22;100.00;60274.75;6277181;28;20588;-43
2022/09/29 14:12:26;;;;;;;0.73;0.73;;;;;;;-144.22;100.00;60274.75;6278493;28;20685;-43
2022/09/29 14:15:38;;;;;;;1.03;0.90;;;;;;;-144.22;100.00;60274.75;6278340;28;20231;-42
2022/09/29 14:18:50;;;;;;;0.70;0.70;;;;;;;-144.22;100.00;60274.75;6279140;28;20253;-43
2022/09/29 14:21:57;;;;;;;2.10;0.70;;;;;;;-144.22;100.00;60274.75;6278352;28;20242;-42
2022/09/29 14:25:09;;;;;;;1.33;0.90;;;;;;;-144.22;100.00;60274.75;6277487;28;20241;-43
2022/09/29 14:28:17;;;;;;;1.40;0.80;;;;;;;-144.22;100.00;60274.75;6278162;28;20231;-43
2022/09/29 14:31:22;;;;;;;1.20;0.70;;;;;;;-144.22;100.00;60274.75;6277947;28;20238;-44
2022/09/29 14:34:31;;;;;;;0.77;0.77;;;;;;;-144.22;100.00;60274.75;6277195;28;20713;-42
2022/09/29 14:37:35;;;;;;;1.17;0.90;;;;;;;-144.22;100.00;60274.75;6277881;28;20241;-43
2022/09/29 14:40:37;;;;;;;2.20;0.90;;;;;;;-144.22;100.00;60274.75;6278096;28;20226;-42
2022/09/29 14:43:48;;;;;;;1.00;0.70;;;;;;;-144.22;100.00;60274.75;6277878;28;20238;-43
2022/09/29 14:54:08;;;;;;;1.00;0.90;;;;;;;-144.22;100.00;60274.75;6277759;28;20594;-43
2022/09/29 14:57:37;;;;;;;2.93;1.10;;;;;;;-144.22;100.00;60274.75;6277390;28;20237;-43
2022/09/29 15:00:45;;;;;;;1.73;0.87;;;;;;;-144.22;100.00;60274.75;6277714;28;20222;-43
2022/09/29 15:03:52;;;;;;;1.27;0.87;;;;;;;-144.22;100.00;60274.75;6277191;28;20234;-43